Cary, Illinois
Current Conditions -  °F | °C
As of 11:52 AM on Friday 28 Nov 2014 (Local Time) from KPWK Reporting Station
Broken Clouds Broken Clouds  
Wind Chill: 14°   Ceiling: 11000
Heat Index: 26°   Visibility: 10mi
Dew Point: 15°   Wind: 14mph
Humidity: 63%   Direction: 160°SSE
Pressure: 30.12"   Gusts: NA
Location:  42.2°N, 88.25°W
Report Text: KPWK 281752Z 16012KT 10SM BKN110 M03/M09 A3012 RMK AO2 PRESFR SLP207 60000 T10331094 11033 21067 58045
Loading
Personal Weather Stations






























Interactive Weather Map New forecast layout! Learn more

10-Day Weather Forecast

Advertisements
Track Severe Weather on mobile